»·PEaware :: N653AW KSMF-KOAK

N653AW :: KSMF-KOAK

FLIGHT INFORMATION

Flight Status: Arrived
Operator: Privately registered:
United States
More flights under this callsign
Pilot: Sergei F. (8485)
Aircraft: AIRBUS A320
(A320)
More flights by this aircraft type
Origin: KSMF Sacramento Intl
United States
Destination: KOAK Metro Oakland Intl
United States
More flights between these airports :: More routes between these airports
Route: +THORN BANND TOOOL OAKES2
File this flight plan on PilotEdge
Remarks:
Altitude:
(Current/Filed)
16,000ft
Speed:
(Current/Filed)
300kts
Departed: 11-Jun-19 10:24 PM
Arrived: 11-Jun-19 10:52 PM
Distance/Time
Traveled:
66nm/0:28
Distance/Time
To Go:
Arrived

Flight Plot

Page will automatically refresh every two minutes.

Flight plan parsing failed; only flown route is shown


Map Options




Map Legend


Flown Route
Filed Route
Departure Airport
Arrival Airport
Navaid (VOR, NDB)
Fix

Horizontal Profiles

Position Reports

Time Latitude Longitude Heading Altitude Ground
Speed
11-Jun-19 21:45 38.695823 -121.590264 271 29ft 0kts
11-Jun-19 21:45 38.695823 -121.590264 271 29ft 0kts
11-Jun-19 21:46 38.695823 -121.590264 271 29ft 0kts
11-Jun-19 21:47 38.695823 -121.590264 271 29ft 0kts
11-Jun-19 21:48 38.695823 -121.590264 271 29ft 0kts
11-Jun-19 21:49 38.695823 -121.590264 271 29ft 0kts
11-Jun-19 21:50 38.695823 -121.590264 271 29ft 0kts
11-Jun-19 21:51 38.695823 -121.590264 271 29ft 0kts
11-Jun-19 21:52 38.695823 -121.590264 271 29ft 0kts
11-Jun-19 21:53 38.695823 -121.590264 271 29ft 0kts
11-Jun-19 21:54 38.695823 -121.590264 271 29ft 0kts
11-Jun-19 21:55 38.695823 -121.590264 271 29ft 0kts
11-Jun-19 21:56 38.695823 -121.590264 271 29ft 0kts
11-Jun-19 21:57 38.695823 -121.590264 271 29ft 0kts
11-Jun-19 21:58 38.695823 -121.590264 271 29ft 0kts
11-Jun-19 21:59 38.695823 -121.590264 271 29ft 0kts
11-Jun-19 22:00 38.695823 -121.590264 271 29ft 0kts
11-Jun-19 22:01 38.695823 -121.590264 271 29ft 0kts
11-Jun-19 22:02 38.695823 -121.590264 271 29ft 0kts
11-Jun-19 22:03 38.695823 -121.590264 271 29ft 0kts
11-Jun-19 22:04 38.695823 -121.590264 271 29ft 0kts
11-Jun-19 22:05 38.695823 -121.590264 271 29ft 0kts
11-Jun-19 22:06 38.695823 -121.590264 271 29ft 0kts
11-Jun-19 22:07 38.695823 -121.590264 271 29ft 0kts
11-Jun-19 22:08 38.695823 -121.590264 271 29ft 0kts
11-Jun-19 22:09 38.695823 -121.590264 271 29ft 0kts
11-Jun-19 22:10 38.695823 -121.590264 271 29ft 0kts
11-Jun-19 22:11 38.695823 -121.590264 271 29ft 0kts
11-Jun-19 22:12 38.695817 -121.590026 271 29ft 1kts
11-Jun-19 22:13 38.695640 -121.589349 319 29ft 2kts
11-Jun-19 22:14 38.695247 -121.589175 0 29ft 0kts
11-Jun-19 22:15 38.695248 -121.589175 0 29ft 0kts
11-Jun-19 22:16 38.695248 -121.589175 0 29ft 0kts
11-Jun-19 22:17 38.695435 -121.589173 359 29ft 5kts
11-Jun-19 22:18 38.696908 -121.587821 89 29ft 9kts
11-Jun-19 22:19 38.696859 -121.584065 90 29ft 11kts
11-Jun-19 22:20 38.699685 -121.582809 0 29ft 19kts
11-Jun-19 22:21 38.705607 -121.582712 0 29ft 18kts
11-Jun-19 22:22 38.706994 -121.580583 91 29ft 7kts
11-Jun-19 22:23 38.702429 -121.580153 180 29ft 90kts
11-Jun-19 22:24 38.655935 -121.570371 143 2609ft 200kts
11-Jun-19 22:25 38.612200 -121.513470 133 4974ft 269kts
11-Jun-19 22:26 38.565163 -121.443596 129 8277ft 283kts
11-Jun-19 22:27 38.517167 -121.366861 129 10001ft 286kts
11-Jun-19 22:28 38.469915 -121.292134 130 10011ft 287kts
11-Jun-19 22:29 38.416158 -121.207600 130 10008ft 318kts
11-Jun-19 22:30 38.360449 -121.120114 129 10051ft 318kts
11-Jun-19 22:31 38.289877 -121.065289 178 10090ft 323kts
11-Jun-19 22:32 38.202347 -121.071125 196 10039ft 323kts
11-Jun-19 22:33 38.117470 -121.107045 196 10007ft 322kts
11-Jun-19 22:34 38.032684 -121.142701 196 10000ft 324kts
11-Jun-19 22:35 37.946696 -121.178727 198 10012ft 327kts
11-Jun-19 22:36 37.863166 -121.213631 198 10008ft 320kts
11-Jun-19 22:37 37.780746 -121.248009 198 10013ft 320kts
11-Jun-19 22:38 37.713368 -121.311410 250 10023ft 325kts
11-Jun-19 22:39 37.685771 -121.418048 250 10033ft 326kts
11-Jun-19 22:40 37.659179 -121.520153 250 9906ft 292kts
11-Jun-19 22:41 37.634008 -121.616724 250 9306ft 291kts
11-Jun-19 22:42 37.613826 -121.714538 263 8424ft 290kts
11-Jun-19 22:43 37.607114 -121.814375 263 7531ft 285kts
11-Jun-19 22:44 37.607210 -121.911035 269 6802ft 260kts
11-Jun-19 22:45 37.606628 -121.998154 266 4986ft 251kts
11-Jun-19 22:46 37.611069 -122.076149 302 3628ft 219kts
11-Jun-19 22:47 37.641919 -122.124792 308 2841ft 146kts
11-Jun-19 22:48 37.666558 -122.161814 308 1381ft 138kts
11-Jun-19 22:49 37.689900 -122.196869 308 400ft 134kts
11-Jun-19 22:50 37.710464 -122.227702 310 13ft 52kts
11-Jun-19 22:51 37.714899 -122.231195 52 13ft 8kts
11-Jun-19 22:52 37.712265 -122.226676 129 13ft 11kts
11-Jun-19 22:53 37.713284 -122.223392 59 13ft 9kts
11-Jun-19 22:54 37.711537 -122.219910 129 13ft 13kts
11-Jun-19 22:55 37.711154 -122.217660 72 13ft 5kts
11-Jun-19 22:56 37.710924 -122.216658 112 13ft 0kts
11-Jun-19 22:57 37.710924 -122.216658 112 13ft 0kts
11-Jun-19 22:58 37.710924 -122.216658 112 13ft 0kts
11-Jun-19 22:59 37.710924 -122.216658 112 13ft 0kts
11-Jun-19 23:00 37.710924 -122.216658 112 13ft 0kts

Navigation Log

Ident Type
Flight plan parsing failed, navigation log unavailable